createdAt,value
2023-05-09T03:42:19.266Z,1009.26
2023-05-09T03:43:19.250Z,1009.28
2023-05-09T03:44:19.241Z,1009.30
2023-05-09T03:45:19.249Z,1009.31
2023-05-09T03:46:19.244Z,1009.30
2023-05-09T03:47:19.208Z,1009.28
2023-05-09T03:48:19.211Z,1009.25
2023-05-09T03:49:19.190Z,1009.26
2023-05-09T03:50:19.174Z,1009.28
2023-05-09T03:51:19.166Z,1009.26
2023-05-09T03:52:19.163Z,1009.27
2023-05-09T03:53:19.260Z,1009.28
2023-05-09T03:54:19.134Z,1009.21
2023-05-09T03:55:19.125Z,1009.26
2023-05-09T03:56:19.112Z,1009.19
2023-05-09T03:57:19.103Z,1009.23
2023-05-09T03:58:19.093Z,1009.20
2023-05-09T03:59:19.081Z,1009.22
2023-05-09T04:00:19.073Z,1009.21
2023-05-09T04:01:19.061Z,1009.19
2023-05-09T04:02:19.093Z,1009.20
2023-05-09T04:03:19.131Z,1009.21
2023-05-09T04:04:19.029Z,1009.20
2023-05-09T04:05:19.029Z,1009.19
2023-05-09T04:06:19.012Z,1009.16
2023-05-09T04:07:18.996Z,1009.16
2023-05-09T04:08:18.981Z,1009.19
2023-05-09T04:09:19.108Z,1009.16
2023-05-09T04:10:18.969Z,1009.14
2023-05-09T04:11:19.173Z,1009.13
2023-05-09T04:12:18.943Z,1009.13
2023-05-09T04:13:18.949Z,1009.12
2023-05-09T04:14:18.927Z,1009.10
2023-05-09T04:15:18.917Z,1009.09
2023-05-09T04:16:18.903Z,1009.07
2023-05-09T04:17:18.895Z,1009.07
2023-05-09T04:18:18.878Z,1009.04
2023-05-09T04:19:19.107Z,1009.04
2023-05-09T04:20:18.865Z,1009.03
2023-05-09T04:21:18.848Z,1009.04
2023-05-09T04:22:18.835Z,1009.05
2023-05-09T04:23:18.832Z,1009.05
2023-05-09T04:24:18.816Z,1009.05
2023-05-09T04:25:18.925Z,1008.99
2023-05-09T04:26:18.795Z,1009.01
2023-05-09T04:27:18.788Z,1009.01
2023-05-09T04:28:18.772Z,1008.99
2023-05-09T04:29:18.963Z,1008.97
2023-05-09T04:30:18.752Z,1008.97
2023-05-09T04:31:18.850Z,1008.99
2023-05-09T04:32:18.771Z,1008.96
2023-05-09T04:33:18.722Z,1008.99
2023-05-09T04:34:18.709Z,1008.96
2023-05-09T04:35:20.485Z,1008.96
2023-05-09T04:36:18.904Z,1008.96
2023-05-09T04:37:18.682Z,1008.99
2023-05-09T04:38:18.675Z,1008.98
2023-05-09T04:39:18.656Z,1008.97
2023-05-09T04:40:18.648Z,1008.89
2023-05-09T04:41:18.752Z,1008.91
2023-05-09T04:42:18.622Z,1008.88
2023-05-09T04:43:18.613Z,1008.89
2023-05-09T04:44:18.601Z,1008.88
2023-05-09T04:45:18.596Z,1008.84
2023-05-09T04:46:18.598Z,1008.83
2023-05-09T04:47:18.784Z,1008.86
2023-05-09T04:48:18.573Z,1008.88
2023-05-09T04:49:18.558Z,1008.85
2023-05-09T04:50:18.542Z,1008.88
2023-05-09T04:51:18.527Z,1008.86
2023-05-09T04:52:18.526Z,1008.84
2023-05-09T04:53:18.507Z,1008.76
2023-05-09T04:54:18.500Z,1008.82
2023-05-09T04:55:18.483Z,1008.83
2023-05-09T04:56:18.479Z,1008.78
2023-05-09T04:57:19.269Z,1008.80
2023-05-09T04:58:18.464Z,1008.76
2023-05-09T04:59:18.454Z,1008.76
2023-05-09T05:00:18.509Z,1008.76
2023-05-09T05:01:18.453Z,1008.73
2023-05-09T05:02:18.411Z,1008.70
2023-05-09T05:03:18.402Z,1008.68
2023-05-09T05:04:18.630Z,1008.68
2023-05-09T05:05:24.666Z,1008.68
2023-05-09T05:06:19.401Z,1008.65
2023-05-09T05:07:18.359Z,1008.67
2023-05-09T05:08:18.353Z,1008.67
2023-05-09T05:09:18.535Z,1008.66
2023-05-09T05:10:18.332Z,1008.65
2023-05-09T05:11:18.312Z,1008.65
2023-05-09T05:12:18.305Z,1008.63
2023-05-09T05:13:18.526Z,1008.64
2023-05-09T05:14:18.292Z,1008.70
2023-05-09T05:15:18.483Z,1008.69
2023-05-09T05:16:18.288Z,1008.66
2023-05-09T05:17:18.426Z,1008.66
2023-05-09T05:18:18.243Z,1008.68
2023-05-09T05:19:18.229Z,1008.68
2023-05-09T05:20:18.221Z,1008.60
2023-05-09T05:21:18.206Z,1008.64
2023-05-09T05:22:18.201Z,1008.60
2023-05-09T05:23:18.410Z,1008.63
2023-05-09T05:24:18.175Z,1008.66
2023-05-09T05:25:18.365Z,1008.63
2023-05-09T05:26:18.158Z,1008.66
2023-05-09T05:27:18.143Z,1008.67
2023-05-09T05:28:18.136Z,1008.67
2023-05-09T05:29:18.246Z,1008.67
2023-05-09T05:30:18.121Z,1008.66
2023-05-09T05:31:18.166Z,1008.68
2023-05-09T05:32:18.098Z,1008.67
2023-05-09T05:33:18.080Z,1008.66
2023-05-09T05:34:18.073Z,1008.67
2023-05-09T05:35:18.061Z,1008.64
2023-05-09T05:36:18.059Z,1008.61
2023-05-09T05:37:18.051Z,1008.61
2023-05-09T05:38:18.023Z,1008.56
2023-05-09T05:39:18.024Z,1008.56
2023-05-09T05:40:18.003Z,1008.55
2023-05-09T05:41:17.985Z,1008.55
2023-05-09T05:42:18.189Z,1008.53
2023-05-09T05:43:17.968Z,1008.51
2023-05-09T05:44:17.962Z,1008.51
2023-05-09T05:45:18.120Z,1008.47
2023-05-09T05:46:18.032Z,1008.53
2023-05-09T05:47:17.928Z,1008.49
2023-05-09T05:48:17.912Z,1008.51
2023-05-09T05:49:17.904Z,1008.47
2023-05-09T05:50:17.890Z,1008.47
2023-05-09T05:51:17.877Z,1008.54
2023-05-09T05:52:17.870Z,1008.50
2023-05-09T05:53:17.858Z,1008.46
2023-05-09T05:54:17.847Z,1008.50
2023-05-09T05:55:17.990Z,1008.50
2023-05-09T05:56:17.830Z,1008.54
2023-05-09T05:57:17.820Z,1008.52
2023-05-09T05:58:17.807Z,1008.51
2023-05-09T05:59:17.792Z,1008.50
2023-05-09T06:00:17.796Z,1008.50
2023-05-09T06:01:17.790Z,1008.52
2023-05-09T06:02:17.810Z,1008.47
2023-05-09T06:03:17.823Z,1008.52
2023-05-09T06:04:17.805Z,1008.43
2023-05-09T06:05:17.729Z,1008.48
2023-05-09T06:06:17.720Z,1008.47
2023-05-09T06:07:17.708Z,1008.52
2023-05-09T06:08:19.198Z,1008.50
2023-05-09T06:09:17.689Z,1008.46
2023-05-09T06:10:17.684Z,1008.45
2023-05-09T06:11:17.666Z,1008.42
2023-05-09T06:12:17.663Z,1008.37
2023-05-09T06:13:17.708Z,1008.37
2023-05-09T06:14:17.644Z,1008.35
2023-05-09T06:15:17.846Z,1008.27
2023-05-09T06:16:19.938Z,1008.28
2023-05-09T06:17:18.103Z,1008.30
2023-05-09T06:18:17.792Z,1008.26
2023-05-09T06:19:17.581Z,1008.16
2023-05-09T06:20:17.569Z,1008.18
2023-05-09T06:21:17.564Z,1008.23
2023-05-09T06:22:17.755Z,1008.21
2023-05-09T06:23:17.535Z,1008.17
2023-05-09T06:24:31.858Z,1008.12
2023-05-09T06:25:18.547Z,1008.12
2023-05-09T06:26:17.509Z,1008.12
2023-05-09T06:27:17.494Z,1008.10
2023-05-09T06:28:17.482Z,1008.08
2023-05-09T06:29:17.470Z,1008.10
2023-05-09T06:30:25.607Z,1008.10
2023-05-09T06:31:18.504Z,1008.09
2023-05-09T06:32:17.441Z,1008.09
2023-05-09T06:33:17.547Z,1008.08
2023-05-09T06:34:17.421Z,1008.08
2023-05-09T06:35:17.409Z,1008.08
2023-05-09T06:36:17.397Z,1008.01
2023-05-09T06:37:17.393Z,1008.05
2023-05-09T06:38:17.381Z,1008.05
2023-05-09T06:39:17.367Z,1008.03
2023-05-09T06:40:17.388Z,1008.03
2023-05-09T06:41:17.355Z,1008.05
2023-05-09T06:42:17.332Z,1008.05
2023-05-09T06:43:17.320Z,1008.06
2023-05-09T06:44:17.309Z,1008.05
2023-05-09T06:45:17.646Z,1008.04
2023-05-09T06:46:17.314Z,1007.98
2023-05-09T06:47:17.280Z,1007.95
2023-05-09T06:48:17.265Z,1007.92
2023-05-09T06:49:17.473Z,1007.96
2023-05-09T06:50:17.243Z,1007.96
2023-05-09T06:51:17.230Z,1007.96
2023-05-09T06:52:17.227Z,1007.91
2023-05-09T06:53:17.215Z,1007.86
2023-05-09T06:54:17.200Z,1007.85
2023-05-09T06:55:17.369Z,1007.81
2023-05-09T06:56:19.491Z,1007.81
2023-05-09T06:57:17.164Z,1007.79
2023-05-09T06:58:17.162Z,1007.85
2023-05-09T06:59:17.140Z,1007.79
2023-05-09T07:00:17.137Z,1007.80
2023-05-09T07:01:17.148Z,1007.80
2023-05-09T07:02:17.311Z,1007.80
2023-05-09T07:03:17.111Z,1007.79
2023-05-09T07:04:17.114Z,1007.77
2023-05-09T07:05:17.562Z,1007.77
2023-05-09T07:06:17.079Z,1007.76
2023-05-09T07:07:17.063Z,1007.66
2023-05-09T07:08:17.053Z,1007.64
2023-05-09T07:09:17.042Z,1007.62
2023-05-09T07:10:17.027Z,1007.62
2023-05-09T07:11:17.018Z,1007.61
2023-05-09T07:12:17.008Z,1007.60
2023-05-09T07:13:17.038Z,1007.62
2023-05-09T07:14:16.987Z,1007.60
2023-05-09T07:15:28.792Z,1007.62
2023-05-09T07:16:18.052Z,1007.58
2023-05-09T07:17:23.295Z,1007.56
2023-05-09T07:18:17.974Z,1007.55
2023-05-09T07:19:16.940Z,1007.48
2023-05-09T07:20:16.931Z,1007.43
2023-05-09T07:21:17.027Z,1007.45
2023-05-09T07:22:16.966Z,1007.45
2023-05-09T07:23:16.894Z,1007.39
2023-05-09T07:24:16.886Z,1007.43
2023-05-09T07:25:17.052Z,1007.41
2023-05-09T07:26:16.861Z,1007.39
2023-05-09T07:27:16.852Z,1007.44
2023-05-09T07:28:16.844Z,1007.41
2023-05-09T07:29:16.829Z,1007.37
2023-05-09T07:30:17.077Z,1007.36
2023-05-09T07:31:16.817Z,1007.33
2023-05-09T07:32:16.830Z,1007.34
2023-05-09T07:33:16.785Z,1007.37
2023-05-09T07:34:16.780Z,1007.36
2023-05-09T07:35:16.973Z,1007.36
2023-05-09T07:36:16.752Z,1007.34
2023-05-09T07:37:16.859Z,1007.27
2023-05-09T07:38:16.740Z,1007.30
2023-05-09T07:39:16.719Z,1007.29
2023-05-09T07:40:17.000Z,1007.28
2023-05-09T07:41:16.697Z,1007.26
2023-05-09T07:42:16.707Z,1007.26
2023-05-09T07:43:16.689Z,1007.23
2023-05-09T07:44:16.677Z,1007.21
2023-05-09T07:45:17.094Z,1007.20
2023-05-09T07:46:16.683Z,1007.21
2023-05-09T07:47:16.635Z,1007.18
2023-05-09T07:48:16.624Z,1007.14
2023-05-09T07:49:16.607Z,1007.11
2023-05-09T07:50:16.603Z,1007.14
2023-05-09T07:51:16.589Z,1007.13
2023-05-09T07:52:16.587Z,1007.08
2023-05-09T07:53:16.892Z,1007.05
2023-05-09T07:54:16.563Z,1007.09
2023-05-09T07:55:16.803Z,1007.07
2023-05-09T07:56:16.549Z,1007.03
2023-05-09T07:57:16.526Z,1007.09
2023-05-09T07:58:16.515Z,1006.96
2023-05-09T07:59:16.509Z,1007.03
2023-05-09T08:00:16.583Z,1006.97
2023-05-09T08:01:16.480Z,1006.97
2023-05-09T08:02:16.530Z,1006.96
2023-05-09T08:03:16.584Z,1006.91
2023-05-09T08:04:16.471Z,1006.89
2023-05-09T08:05:16.697Z,1006.87
2023-05-09T08:06:16.434Z,1006.86
2023-05-09T08:07:16.523Z,1006.85
2023-05-09T08:08:16.406Z,1006.88
2023-05-09T08:09:16.513Z,1006.86
2023-05-09T08:10:16.404Z,1006.89
2023-05-09T08:11:16.376Z,1006.87
2023-05-09T08:12:16.412Z,1006.79
2023-05-09T08:13:16.368Z,1006.77
2023-05-09T08:14:16.349Z,1006.83
2023-05-09T08:15:16.873Z,1006.73
2023-05-09T08:16:16.397Z,1006.71
2023-05-09T08:17:16.315Z,1006.72
2023-05-09T08:18:16.305Z,1006.71
2023-05-09T08:19:16.295Z,1006.67
2023-05-09T08:20:16.286Z,1006.63
2023-05-09T08:21:16.273Z,1006.62
2023-05-09T08:22:16.265Z,1006.65
2023-05-09T08:23:16.254Z,1006.59
2023-05-09T08:24:16.248Z,1006.61
2023-05-09T08:25:16.583Z,1006.55
2023-05-09T08:26:16.228Z,1006.52
2023-05-09T08:27:16.217Z,1006.54
2023-05-09T08:28:16.403Z,1006.56
2023-05-09T08:29:16.192Z,1006.53
2023-05-09T08:30:16.183Z,1006.55
2023-05-09T08:31:16.250Z,1006.58
2023-05-09T08:32:16.162Z,1006.62
2023-05-09T08:33:16.149Z,1006.55
2023-05-09T08:34:16.166Z,1006.54
2023-05-09T08:35:16.460Z,1006.59
2023-05-09T08:36:16.120Z,1006.53
2023-05-09T08:37:16.127Z,1006.53
2023-05-09T08:38:16.108Z,1006.49
2023-05-09T08:39:16.084Z,1006.49
2023-05-09T08:40:16.357Z,1006.52
2023-05-09T08:41:16.185Z,1006.51
2023-05-09T08:42:16.081Z,1006.50
2023-05-09T08:43:16.052Z,1006.44
2023-05-09T08:44:16.037Z,1006.50
2023-05-09T08:45:16.021Z,1006.54
2023-05-09T08:46:16.036Z,1006.46
2023-05-09T08:47:16.013Z,1006.44
2023-05-09T08:48:16.197Z,1006.44
2023-05-09T08:49:15.983Z,1006.41
2023-05-09T08:50:16.259Z,1006.38
2023-05-09T08:51:15.964Z,1006.41
2023-05-09T08:52:15.949Z,1006.40
2023-05-09T08:53:15.944Z,1006.39
2023-05-09T08:54:15.926Z,1006.37
2023-05-09T08:55:15.920Z,1006.38
2023-05-09T08:56:16.107Z,1006.35
2023-05-09T08:57:16.023Z,1006.36
2023-05-09T08:58:15.889Z,1006.37
2023-05-09T08:59:15.874Z,1006.35
2023-05-09T09:00:17.956Z,1006.31
2023-05-09T09:01:15.874Z,1006.24
2023-05-09T09:02:15.919Z,1006.32
2023-05-09T09:03:15.874Z,1006.21
2023-05-09T09:04:15.984Z,1006.26
2023-05-09T09:05:39.427Z,1006.24
2023-05-09T09:06:17.039Z,1006.25
2023-05-09T09:07:15.791Z,1006.27
2023-05-09T09:08:15.984Z,1006.24
2023-05-09T09:09:15.771Z,1006.26
2023-05-09T09:10:15.934Z,1006.20
2023-05-09T09:11:15.749Z,1006.21
2023-05-09T09:12:15.758Z,1006.18
2023-05-09T09:13:15.791Z,1006.14
2023-05-09T09:14:15.723Z,1006.13
2023-05-09T09:15:17.328Z,1006.12
2023-05-09T09:16:15.715Z,1006.07
2023-05-09T09:17:15.688Z,1006.00
2023-05-09T09:18:15.678Z,1005.97
2023-05-09T09:19:15.667Z,1005.99
2023-05-09T09:20:15.866Z,1006.05
2023-05-09T09:21:15.649Z,1005.96
2023-05-09T09:22:15.649Z,1005.97
2023-05-09T09:23:15.629Z,1006.01
2023-05-09T09:24:15.619Z,1005.97
2023-05-09T09:25:15.610Z,1005.98
2023-05-09T09:26:15.603Z,1006.00
2023-05-09T09:27:15.592Z,1005.97
2023-05-09T09:28:15.571Z,1006.01
2023-05-09T09:29:15.752Z,1005.92
2023-05-09T09:30:15.762Z,1005.95
2023-05-09T09:31:17.176Z,1005.95
2023-05-09T09:32:15.614Z,1005.91
2023-05-09T09:33:15.587Z,1006.00
2023-05-09T09:34:15.512Z,1005.91
2023-05-09T09:35:15.503Z,1005.92
2023-05-09T09:36:15.491Z,1005.89
2023-05-09T09:37:15.490Z,1005.86
2023-05-09T09:38:15.489Z,1005.76
2023-05-09T09:39:15.475Z,1005.80
2023-05-09T09:40:15.670Z,1005.78
2023-05-09T09:41:15.461Z,1005.76
2023-05-09T09:42:15.429Z,1005.77
2023-05-09T09:43:15.422Z,1005.73
2023-05-09T09:44:15.417Z,1005.79
2023-05-09T09:45:15.534Z,1005.69
2023-05-09T09:46:15.650Z,1005.76
2023-05-09T09:47:15.384Z,1005.79
2023-05-09T09:48:15.373Z,1005.72
2023-05-09T09:49:15.356Z,1005.74
2023-05-09T09:50:15.526Z,1005.70
2023-05-09T09:51:15.344Z,1005.70
2023-05-09T09:52:15.327Z,1005.69
2023-05-09T09:53:15.319Z,1005.75
2023-05-09T09:54:15.327Z,1005.63
2023-05-09T09:55:15.305Z,1005.59
2023-05-09T09:56:15.292Z,1005.60
2023-05-09T09:57:15.282Z,1005.52
2023-05-09T09:58:15.265Z,1005.51
2023-05-09T09:59:15.255Z,1005.46
2023-05-09T10:00:15.368Z,1005.52
2023-05-09T10:01:15.408Z,1005.45
2023-05-09T10:02:15.221Z,1005.42
2023-05-09T10:03:15.331Z,1005.45
2023-05-09T10:04:15.269Z,1005.40
2023-05-09T10:05:15.197Z,1005.38
2023-05-09T10:06:15.178Z,1005.38
2023-05-09T10:07:15.347Z,1005.39
2023-05-09T10:08:15.165Z,1005.43
2023-05-09T10:09:15.151Z,1005.44
2023-05-09T10:10:15.373Z,1005.35
2023-05-09T10:11:15.131Z,1005.38
2023-05-09T10:12:15.117Z,1005.37
2023-05-09T10:13:15.144Z,1005.40
2023-05-09T10:14:15.110Z,1005.33
2023-05-09T10:15:15.090Z,1005.36
2023-05-09T10:16:15.128Z,1005.35
2023-05-09T10:17:15.361Z,1005.37
2023-05-09T10:18:15.413Z,1005.36
2023-05-09T10:19:15.049Z,1005.29
2023-05-09T10:20:15.290Z,1005.31
2023-05-09T10:21:15.030Z,1005.30
2023-05-09T10:22:15.015Z,1005.28
2023-05-09T10:23:15.006Z,1005.29
2023-05-09T10:24:15.001Z,1005.28
2023-05-09T10:25:15.250Z,1005.24
2023-05-09T10:26:14.970Z,1005.28
2023-05-09T10:27:14.970Z,1005.24
2023-05-09T10:28:14.953Z,1005.23
2023-05-09T10:29:14.945Z,1005.18
2023-05-09T10:30:14.930Z,1005.20
2023-05-09T10:31:14.950Z,1005.16
2023-05-09T10:32:14.911Z,1005.22
2023-05-09T10:33:15.025Z,1005.21
2023-05-09T10:34:14.891Z,1005.24
2023-05-09T10:35:15.023Z,1005.21
2023-05-09T10:36:14.869Z,1005.11
2023-05-09T10:37:14.858Z,1005.09
2023-05-09T10:38:14.847Z,1005.11
2023-05-09T10:39:14.834Z,1005.10
2023-05-09T10:40:14.827Z,1005.03
2023-05-09T10:41:14.818Z,1005.05
2023-05-09T10:42:14.803Z,1005.06
2023-05-09T10:43:14.802Z,1005.06
2023-05-09T10:44:14.787Z,1005.08
2023-05-09T10:45:15.002Z,1005.03
2023-05-09T10:46:14.809Z,1005.01
2023-05-09T10:47:14.753Z,1005.02
2023-05-09T10:48:14.747Z,1005.01
2023-05-09T10:49:14.847Z,1004.98
2023-05-09T10:50:14.722Z,1004.97
2023-05-09T10:51:14.720Z,1004.98
2023-05-09T10:52:14.702Z,1004.95
2023-05-09T10:53:14.688Z,1004.96
2023-05-09T10:54:14.678Z,1004.92
2023-05-09T10:55:14.821Z,1004.90
2023-05-09T10:56:14.654Z,1004.87
2023-05-09T10:57:14.649Z,1004.87
2023-05-09T10:58:14.850Z,1004.89
2023-05-09T10:59:14.667Z,1004.85
2023-05-09T11:00:14.633Z,1004.85
2023-05-09T11:01:14.615Z,1004.79
2023-05-09T11:02:14.600Z,1004.78
2023-05-09T11:03:14.859Z,1004.82
2023-05-09T11:04:14.763Z,1004.80
2023-05-09T11:05:14.943Z,1004.74
2023-05-09T11:06:14.553Z,1004.72
2023-05-09T11:07:14.544Z,1004.71
2023-05-09T11:08:14.532Z,1004.74
2023-05-09T11:09:14.522Z,1004.71
2023-05-09T11:10:14.510Z,1004.71
2023-05-09T11:11:14.501Z,1004.72
2023-05-09T11:12:14.493Z,1004.67
2023-05-09T11:13:14.487Z,1004.69
2023-05-09T11:14:14.469Z,1004.68
2023-05-09T11:15:14.611Z,1004.66
2023-05-09T11:16:14.463Z,1004.64
2023-05-09T11:17:14.447Z,1004.63
2023-05-09T11:18:14.428Z,1004.63
2023-05-09T11:19:14.422Z,1004.59
2023-05-09T11:20:14.406Z,1004.57
2023-05-09T11:21:14.528Z,1004.53
2023-05-09T11:22:14.399Z,1004.56
2023-05-09T11:23:14.375Z,1004.58
2023-05-09T11:24:14.372Z,1004.56
2023-05-09T11:25:14.642Z,1004.53
2023-05-09T11:26:14.345Z,1004.58
2023-05-09T11:27:14.338Z,1004.56
2023-05-09T11:28:14.322Z,1004.60
2023-05-09T11:29:14.313Z,1004.61
2023-05-09T11:30:14.409Z,1004.53
2023-05-09T11:31:14.297Z,1004.50
2023-05-09T11:32:14.321Z,1004.52
2023-05-09T11:33:14.272Z,1004.52
2023-05-09T11:34:14.259Z,1004.50
2023-05-09T11:35:14.576Z,1004.46
2023-05-09T11:36:14.242Z,1004.47
2023-05-09T11:37:14.385Z,1004.50
2023-05-09T11:38:14.222Z,1004.44
2023-05-09T11:39:14.232Z,1004.45
2023-05-09T11:40:14.211Z,1004.40
2023-05-09T11:41:14.188Z,1004.42
2023-05-09T11:42:14.179Z,1004.37
2023-05-09T11:43:14.377Z,1004.38
2023-05-09T11:44:14.359Z,1004.36
2023-05-09T11:45:14.345Z,1004.42
2023-05-09T11:46:14.162Z,1004.34
2023-05-09T11:47:14.129Z,1004.33
2023-05-09T11:48:14.114Z,1004.30
2023-05-09T11:49:14.303Z,1004.29
2023-05-09T11:50:14.126Z,1004.31
2023-05-09T11:51:14.093Z,1004.30
2023-05-09T11:52:14.078Z,1004.25
2023-05-09T11:53:14.175Z,1004.26
2023-05-09T11:54:14.053Z,1004.20
2023-05-09T11:55:14.482Z,1004.20
2023-05-09T11:56:14.030Z,1004.17
2023-05-09T11:57:14.028Z,1004.16
2023-05-09T11:58:14.010Z,1004.16
2023-05-09T11:59:14.212Z,1004.12
2023-05-09T12:00:14.185Z,1004.12
2023-05-09T12:01:13.984Z,1004.12
2023-05-09T12:02:13.997Z,1004.08
2023-05-09T12:03:14.083Z,1004.13
2023-05-09T12:04:13.977Z,1004.09
2023-05-09T12:05:14.168Z,1004.09
2023-05-09T12:06:13.961Z,1004.08
2023-05-09T12:07:13.909Z,1004.01
2023-05-09T12:08:13.898Z,1003.96
2023-05-09T12:09:14.004Z,1003.98
2023-05-09T12:10:13.876Z,1003.99
2023-05-09T12:11:13.878Z,1003.95
2023-05-09T12:12:13.868Z,1003.94
2023-05-09T12:13:13.899Z,1003.93
2023-05-09T12:14:13.831Z,1003.91
2023-05-09T12:15:14.418Z,1003.90
2023-05-09T12:16:13.867Z,1003.85
2023-05-09T12:17:13.815Z,1003.83
2023-05-09T12:18:14.042Z,1003.82
2023-05-09T12:19:13.775Z,1003.80
2023-05-09T12:20:13.762Z,1003.78
2023-05-09T12:21:13.756Z,1003.76
2023-05-09T12:22:13.743Z,1003.75
2023-05-09T12:23:13.733Z,1003.74
2023-05-09T12:24:13.719Z,1003.72
2023-05-09T12:25:14.131Z,1003.69
2023-05-09T12:26:13.697Z,1003.69
2023-05-09T12:27:13.713Z,1003.66
2023-05-09T12:28:13.686Z,1003.54
2023-05-09T12:29:13.670Z,1003.57
2023-05-09T12:30:13.665Z,1003.56
2023-05-09T12:31:13.667Z,1003.58
2023-05-09T12:32:13.634Z,1003.54
2023-05-09T12:33:13.630Z,1003.54
2023-05-09T12:34:13.623Z,1003.51
2023-05-09T12:35:13.779Z,1003.49
2023-05-09T12:36:13.620Z,1003.52
2023-05-09T12:37:13.585Z,1003.51
2023-05-09T12:38:13.571Z,1003.50
2023-05-09T12:39:13.573Z,1003.57
2023-05-09T12:40:13.581Z,1003.53
2023-05-09T12:41:30.254Z,1003.50
2023-05-09T12:42:14.565Z,1003.43
2023-05-09T12:43:13.543Z,1003.45
2023-05-09T12:44:13.713Z,1003.42
2023-05-09T12:45:13.901Z,1003.39
2023-05-09T12:46:13.513Z,1003.38
2023-05-09T12:47:13.599Z,1003.33
2023-05-09T12:48:13.472Z,1003.33
2023-05-09T12:49:13.471Z,1003.31
2023-05-09T12:50:13.577Z,1003.28
2023-05-09T12:51:13.435Z,1003.27
2023-05-09T12:52:13.427Z,1003.29
2023-05-09T12:53:13.414Z,1003.30
2023-05-09T12:54:13.418Z,1003.25
2023-05-09T12:55:13.536Z,1003.25
2023-05-09T12:56:13.384Z,1003.24
2023-05-09T12:57:13.496Z,1003.23
2023-05-09T12:58:13.361Z,1003.21
2023-05-09T12:59:13.353Z,1003.17
2023-05-09T13:00:13.382Z,1003.20
2023-05-09T13:01:13.417Z,1003.20
2023-05-09T13:02:13.357Z,1003.19
2023-05-09T13:03:13.335Z,1003.16
2023-05-09T13:04:13.306Z,1003.14
2023-05-09T13:05:13.604Z,1003.12
2023-05-09T13:06:13.275Z,1003.11
2023-05-09T13:07:13.279Z,1003.12
2023-05-09T13:08:13.254Z,1003.06
2023-05-09T13:09:13.249Z,1003.05
2023-05-09T13:10:13.318Z,1003.12
2023-05-09T13:11:16.511Z,1003.06
2023-05-09T13:12:13.222Z,1003.02
2023-05-09T13:13:13.370Z,1003.02
2023-05-09T13:14:13.195Z,1003.01
2023-05-09T13:15:13.648Z,1003.00
2023-05-09T13:16:15.000Z,1003.03
2023-05-09T13:17:13.352Z,1002.98
2023-05-09T13:18:13.190Z,1002.97
2023-05-09T13:19:13.142Z,1002.93
2023-05-09T13:20:13.511Z,1002.89
2023-05-09T13:21:13.114Z,1002.90
2023-05-09T13:22:13.114Z,1002.87
2023-05-09T13:23:13.096Z,1002.84
2023-05-09T13:24:13.097Z,1002.81
2023-05-09T13:25:13.106Z,1002.81
2023-05-09T13:26:13.086Z,1002.79
2023-05-09T13:27:13.267Z,1002.79
2023-05-09T13:28:13.048Z,1002.83
2023-05-09T13:29:13.149Z,1002.77
2023-05-09T13:30:13.212Z,1002.81
2023-05-09T13:31:13.095Z,1002.82
2023-05-09T13:32:13.010Z,1002.83
2023-05-09T13:33:25.126Z,1002.80
2023-05-09T13:34:14.011Z,1002.78
2023-05-09T13:35:12.979Z,1002.75
2023-05-09T13:36:12.984Z,1002.74
2023-05-09T13:37:12.960Z,1002.76
2023-05-09T13:38:12.951Z,1002.72
2023-05-09T13:39:12.938Z,1002.69
2023-05-09T13:40:13.187Z,1002.72
2023-05-09T13:41:13.109Z,1002.67
2023-05-09T13:42:12.911Z,1002.70
2023-05-09T13:43:12.887Z,1002.66
2023-05-09T13:44:12.878Z,1002.67
2023-05-09T13:45:13.340Z,1002.66
2023-05-09T13:46:12.898Z,1002.66
2023-05-09T13:47:12.846Z,1002.64
2023-05-09T13:48:12.887Z,1002.63
2023-05-09T13:49:12.821Z,1002.64
2023-05-09T13:50:13.065Z,1002.65
2023-05-09T13:51:12.796Z,1002.69
2023-05-09T13:52:12.788Z,1002.66
2023-05-09T13:53:12.777Z,1002.58
2023-05-09T13:54:12.765Z,1002.66
2023-05-09T13:55:46.723Z,1002.64
2023-05-09T13:56:46.661Z,1002.65
2023-05-09T13:57:46.655Z,1002.63
2023-05-09T13:58:46.642Z,1002.65
2023-05-09T13:59:46.637Z,1002.58
2023-05-09T14:00:46.656Z,1002.62
2023-05-09T14:01:46.677Z,1002.66
2023-05-09T14:02:46.652Z,1002.68
2023-05-09T14:04:46.578Z,1002.67
2023-05-09T14:05:46.609Z,1002.71
2023-05-09T14:06:46.553Z,1002.64
2023-05-09T14:07:46.548Z,1002.69
2023-05-09T14:08:46.541Z,1002.70
2023-05-09T14:09:48.104Z,1002.71
2023-05-09T14:10:46.512Z,1002.65
2023-05-09T14:11:46.506Z,1002.73
2023-05-09T14:12:46.511Z,1002.70
2023-05-09T14:13:46.490Z,1002.73
2023-05-09T14:14:46.508Z,1002.74
2023-05-09T14:15:46.502Z,1002.69
2023-05-09T14:16:46.587Z,1002.64
2023-05-09T14:17:46.482Z,1002.68
2023-05-09T14:18:46.430Z,1002.67
2023-05-09T14:19:46.419Z,1002.62
2023-05-09T14:20:46.434Z,1002.61
2023-05-09T14:21:46.415Z,1002.61
2023-05-09T14:22:46.401Z,1002.62
2023-05-09T14:23:46.389Z,1002.59
2023-05-09T14:24:46.385Z,1002.58
2023-05-09T14:25:46.359Z,1002.71
2023-05-09T14:26:46.347Z,1002.67
2023-05-09T14:27:46.338Z,1002.63
2023-05-09T14:28:46.326Z,1002.61
2023-05-09T14:29:46.347Z,1002.63
2023-05-09T14:30:46.307Z,1002.65
2023-05-09T14:31:46.319Z,1002.64
2023-05-09T14:32:46.396Z,1002.58
2023-05-09T14:33:46.277Z,1002.63
2023-05-09T14:34:46.303Z,1002.61
2023-05-09T14:35:46.256Z,1002.62
2023-05-09T14:36:46.248Z,1002.59
2023-05-09T14:37:46.233Z,1002.56
2023-05-09T14:38:46.222Z,1002.54
2023-05-09T14:39:46.222Z,1002.54
2023-05-09T14:40:46.210Z,1002.54
2023-05-09T14:41:46.194Z,1002.56
2023-05-09T14:42:46.185Z,1002.54
2023-05-09T14:43:46.177Z,1002.54
2023-05-09T14:44:46.158Z,1002.55
2023-05-09T14:45:46.149Z,1002.53
2023-05-09T14:46:46.208Z,1002.48
2023-05-09T14:47:46.171Z,1002.46
2023-05-09T14:48:46.439Z,1002.45
2023-05-09T14:49:46.111Z,1002.50
2023-05-09T14:50:46.098Z,1002.47
2023-05-09T14:51:46.095Z,1002.44
2023-05-09T14:52:46.077Z,1002.46
2023-05-09T14:53:46.072Z,1002.44
2023-05-09T14:54:46.085Z,1002.44
2023-05-09T14:55:46.060Z,1002.41
2023-05-09T14:56:46.056Z,1002.34
2023-05-09T14:57:46.032Z,1002.35
2023-05-09T14:58:46.009Z,1002.35
2023-05-09T14:59:46.005Z,1002.36
2023-05-09T15:00:46.031Z,1002.38
2023-05-09T15:01:46.016Z,1002.36
2023-05-09T15:02:46.035Z,1002.42
2023-05-09T15:03:45.987Z,1002.43
2023-05-09T15:04:46.069Z,1002.43
2023-05-09T15:05:45.939Z,1002.47
2023-05-09T15:06:45.925Z,1002.48
2023-05-09T15:07:45.918Z,1002.48
2023-05-09T15:08:45.907Z,1002.46
2023-05-09T15:09:45.906Z,1002.48
2023-05-09T15:10:45.886Z,1002.42
2023-05-09T15:11:48.134Z,1002.47
2023-05-09T15:12:45.880Z,1002.42
2023-05-09T15:13:45.856Z,1002.41
2023-05-09T15:14:45.844Z,1002.38
2023-05-09T15:15:45.840Z,1002.42
2023-05-09T15:16:45.906Z,1002.41
2023-05-09T15:17:45.815Z,1002.42
2023-05-09T15:18:45.799Z,1002.44
2023-05-09T15:19:45.793Z,1002.44
2023-05-09T15:20:45.906Z,1002.45
2023-05-09T15:21:45.772Z,1002.41
2023-05-09T15:22:45.797Z,1002.45
2023-05-09T15:23:45.759Z,1002.42
2023-05-09T15:24:45.742Z,1002.45
2023-05-09T15:25:45.730Z,1002.41
2023-05-09T15:26:45.715Z,1002.45
2023-05-09T15:27:45.707Z,1002.47
2023-05-09T15:28:45.692Z,1002.44
2023-05-09T15:29:45.686Z,1002.44
2023-05-09T15:30:45.884Z,1002.41
2023-05-09T15:31:45.660Z,1002.37
2023-05-09T15:32:45.683Z,1002.44
2023-05-09T15:33:45.642Z,1002.37
2023-05-09T15:34:45.635Z,1002.42
2023-05-09T15:35:45.621Z,1002.37
2023-05-09T15:36:45.731Z,1002.36
2023-05-09T15:37:45.639Z,1002.35
2023-05-09T15:38:45.593Z,1002.41
2023-05-09T15:39:45.593Z,1002.43
2023-05-09T15:40:45.571Z,1002.39
2023-05-09T15:41:45.576Z,1002.43
2023-05-09T15:42:45.551Z,1002.45
2023-05-09T15:43:45.541Z,1002.47
2023-05-09T15:44:45.731Z,1002.43
2023-05-09T15:45:45.850Z,1002.47
2023-05-09T15:46:45.518Z,1002.47
2023-05-09T15:47:45.558Z,1002.47
2023-05-09T15:48:45.489Z,1002.39